Time;durP1;ratioP1;P1;durP2;ratioP2;P2;SDS_P1;SDS_P2;PMS_P1;PMS_P2;Temp;Humidity;BMP_temperature;BMP_pressure;BME280_temperature;BME280_humidity;BME280_pressure;Samples;Min_cycle;Max_cycle;Signal;HPM_P1;HPM_P2
2023/10/16 00:01:03;;;;;;;6.25;1.60;;;8.60;99.90;;;;;;5100330;28;20048;-70
2023/10/16 00:03:29;;;;;;;5.78;1.67;;;8.70;99.90;;;;;;5100551;28;20058;-70
2023/10/16 00:05:55;;;;;;;5.63;1.45;;;8.60;99.90;;;;;;5117702;28;20055;-71
2023/10/16 00:08:22;;;;;;;2.53;1.42;;;8.60;99.90;;;;;;5100741;28;20071;-71
2023/10/16 00:10:58;;;;;;;3.15;2.17;;;8.60;99.90;;;;;;5118153;28;20052;-72
2023/10/16 00:13:30;;;;;;;6.68;1.85;;;8.60;99.90;;;;;;5099963;28;20106;-71
2023/10/16 00:15:57;;;;;;;;;;;8.60;99.90;;;;;;5119211;28;20044;-70
2023/10/16 00:18:24;;;;;;;3.83;1.50;;;8.60;99.90;;;;;;5099437;28;19931;-71
2023/10/16 00:20:56;;;;;;;4.50;1.63;;;8.70;99.90;;;;;;5100380;28;20040;-71
2023/10/16 00:23:30;;;;;;;1.80;1.20;;;8.60;99.90;;;;;;5099216;28;20050;-70
2023/10/16 00:26:00;;;;;;;2.55;1.38;;;8.60;99.90;;;;;;5118842;28;20480;-72
2023/10/16 00:28:26;;;;;;;4.95;1.30;;;8.70;99.90;;;;;;5117830;28;20043;-71
2023/10/16 00:30:52;;;;;;;2.85;1.38;;;8.70;99.90;;;;;;5099961;28;20602;-71
2023/10/16 00:33:18;;;;;;;2.92;1.70;;;8.60;99.90;;;;;;5118536;28;20058;-70
2023/10/16 00:35:53;;;;;;;4.20;1.40;;;8.70;99.90;;;;;;5098797;28;20070;-69
2023/10/16 00:38:22;;;;;;;5.03;1.45;;;8.70;99.90;;;;;;5100557;28;20051;-71
2023/10/16 00:43:33;;;;;;;2.47;1.42;;;8.70;99.90;;;;;;5099636;28;20158;-70
2023/10/16 00:46:11;;;;;;;3.25;1.40;;;8.70;99.90;;;;;;5099984;28;20140;-70
2023/10/16 00:48:39;;;;;;;2.55;1.30;;;8.70;99.90;;;;;;5117365;28;20043;-70
2023/10/16 00:51:08;;;;;;;5.03;1.50;;;8.70;99.90;;;;;;5100101;28;20039;-71
2023/10/16 00:53:35;;;;;;;3.00;1.73;;;8.70;99.90;;;;;;5117499;28;20065;-70
2023/10/16 00:56:08;;;;;;;1.88;1.17;;;8.60;99.90;;;;;;5118390;28;20047;-71
2023/10/16 00:58:35;;;;;;;3.38;1.55;;;8.60;99.90;;;;;;5118654;28;20108;-70
2023/10/16 01:01:08;;;;;;;3.58;1.20;;;8.60;99.90;;;;;;5118187;28;20043;-70
2023/10/16 01:03:40;;;;;;;1.83;1.25;;;8.60;99.90;;;;;;5118829;28;20141;-70
2023/10/16 01:06:17;;;;;;;1.70;1.60;;;8.60;99.90;;;;;;5117042;28;20047;-70
2023/10/16 01:08:50;;;;;;;7.28;2.47;;;8.60;99.90;;;;;;5118390;28;20300;-70
2023/10/16 01:11:19;;;;;;;1.67;1.33;;;8.60;99.90;;;;;;5117074;28;20086;-70
2023/10/16 01:13:47;;;;;;;4.03;1.92;;;8.60;99.90;;;;;;5099040;28;20039;-71
2023/10/16 01:16:17;;;;;;;3.55;1.45;;;8.60;99.90;;;;;;5117995;28;20046;-70
2023/10/16 01:18:44;;;;;;;1.88;1.35;;;8.60;99.90;;;;;;5098263;28;20133;-70
2023/10/16 01:21:13;;;;;;;1.70;1.60;;;8.60;99.90;;;;;;5099723;28;20112;-70
2023/10/16 01:23:40;;;;;;;4.38;1.45;;;8.60;99.90;;;;;;5116914;28;20458;-70
2023/10/16 01:26:08;;;;;;;3.83;1.58;;;8.60;99.90;;;;;;5117391;28;20099;-71
2023/10/16 01:28:33;;;;;;;4.97;1.40;;;8.60;99.90;;;;;;5099324;28;20075;-70
2023/10/16 01:31:00;;;;;;;4.07;1.40;;;8.70;99.90;;;;;;5117161;28;20054;-70
2023/10/16 01:33:27;;;;;;;4.53;2.22;;;8.70;99.90;;;;;;5117698;28;20051;-70
2023/10/16 01:35:52;;;;;;;4.90;1.63;;;8.60;99.90;;;;;;5098254;28;20097;-71
2023/10/16 01:38:19;;;;;;;3.20;1.33;;;8.70;99.90;;;;;;5117451;28;20489;-70
2023/10/16 01:43:28;;;;;;;5.60;1.85;;;8.70;99.90;;;;;;5117182;28;20503;-70
2023/10/16 01:45:58;;;;;;;2.78;1.27;;;8.70;99.90;;;;;;5098869;28;20055;-71
2023/10/16 01:48:28;;;;;;;1.25;1.10;;;8.80;99.90;;;;;;5116104;28;20051;-69
2023/10/16 01:50:53;;;;;;;5.13;1.20;;;8.80;99.90;;;;;;5099139;28;20044;-71
2023/10/16 01:53:20;;;;;;;5.22;1.40;;;8.80;99.90;;;;;;5097533;28;20104;-71
2023/10/16 01:55:56;;;;;;;6.53;1.30;;;8.80;99.90;;;;;;5099013;28;20056;-70
2023/10/16 01:58:30;;;;;;;3.28;1.33;;;8.80;99.90;;;;;;5098659;28;20062;-70
2023/10/16 02:00:56;;;;;;;2.15;1.33;;;8.80;99.90;;;;;;5098693;28;20055;-71
2023/10/16 02:03:26;;;;;;;4.38;1.20;;;8.80;99.90;;;;;;5099668;28;20536;-70
2023/10/16 02:05:52;;;;;;;2.95;1.35;;;8.80;99.90;;;;;;5116365;28;20086;-70
2023/10/16 02:08:20;;;;;;;5.68;1.35;;;8.80;99.90;;;;;;5116880;28;20676;-69
2023/10/16 02:10:46;;;;;;;2.90;1.60;;;8.80;99.90;;;;;;5116466;28;20058;-69
2023/10/16 02:13:12;;;;;;;2.90;1.30;;;8.80;99.90;;;;;;5099226;28;20235;-69
2023/10/16 02:15:38;;;;;;;2.80;1.80;;;8.80;99.90;;;;;;5116752;28;20054;-69
2023/10/16 02:18:18;;;;;;;3.05;1.35;;;8.80;99.90;;;;;;5116857;28;20046;-69
2023/10/16 02:20:49;;;;;;;4.78;1.60;;;8.80;99.90;;;;;;5117849;28;20052;-70
2023/10/16 02:23:15;;;;;;;2.88;1.30;;;8.80;99.90;;;;;;5084775;28;20050;-69
2023/10/16 02:25:42;;;;;;;3.70;1.45;;;8.80;99.90;;;;;;5121778;28;20051;-69
2023/10/16 02:28:08;;;;;;;3.50;1.50;;;8.80;99.90;;;;;;5121077;28;20048;-69
2023/10/16 02:30:41;;;;;;;6.40;1.70;;;8.80;99.90;;;;;;5121325;28;20032;-70
2023/10/16 02:35:53;;;;;;;2.92;1.60;;;8.70;99.90;;;;;;5119993;28;20047;-69
2023/10/16 02:38:29;;;;;;;2.80;1.60;;;8.80;99.90;;;;;;5121051;28;20114;-70
2023/10/16 02:41:03;;;;;;;8.23;2.00;;;8.70;99.90;;;;;;5120597;28;20542;-70
2023/10/16 02:43:32;;;;;;;2.97;1.63;;;8.70;99.90;;;;;;5102764;28;20048;-67
2023/10/16 02:46:01;;;;;;;4.80;1.88;;;8.70;99.90;;;;;;5121125;28;20097;-70
2023/10/16 02:48:27;;;;;;;1.83;1.42;;;8.70;99.90;;;;;;5101348;28;20079;-68
2023/10/16 02:50:59;;;;;;;2.08;1.73;;;8.70;99.90;;;;;;5102641;28;20055;-70
2023/10/16 02:53:29;;;;;;;2.60;1.73;;;8.70;99.90;;;;;;5119373;28;20047;-69
2023/10/16 02:56:05;;;;;;;3.72;1.88;;;8.70;99.90;;;;;;5120964;28;20050;-70
2023/10/16 02:58:31;;;;;;;3.08;1.90;;;8.70;99.90;;;;;;5103923;28;20039;-69
2023/10/16 03:00:59;;;;;;;4.53;2.75;;;8.70;99.90;;;;;;5084512;28;20770;-70
2023/10/16 03:03:26;;;;;;;3.70;1.70;;;8.70;99.90;;;;;;5102468;28;20059;-69
2023/10/16 03:05:56;;;;;;;5.57;1.70;;;8.70;99.90;;;;;;5101004;28;20107;-70
2023/10/16 03:08:31;;;;;;;8.57;3.40;;;8.70;99.90;;;;;;5120356;28;20497;-68
2023/10/16 03:11:04;;;;;;;5.00;2.05;;;8.70;99.90;;;;;;5101319;28;20051;-69
2023/10/16 03:13:35;;;;;;;2.47;1.70;;;8.70;99.90;;;;;;5101507;28;20051;-69
2023/10/16 03:16:05;;;;;;;6.43;1.90;;;8.70;99.90;;;;;;5120291;28;20047;-69
2023/10/16 03:18:35;;;;;;;6.30;2.42;;;8.70;99.90;;;;;;5084029;28;20153;-69
2023/10/16 03:23:44;;;;;;;5.50;2.17;;;8.60;99.90;;;;;;5119634;28;20078;-69
2023/10/16 03:28:46;;;;;;;4.05;2.22;;;8.60;99.90;;;;;;5120500;28;20054;-67
2023/10/16 03:31:12;;;;;;;3.08;2.00;;;8.60;99.90;;;;;;5101135;28;20059;-69
2023/10/16 03:33:38;;;;;;;3.35;1.90;;;8.50;99.90;;;;;;5119509;28;20554;-69
2023/10/16 03:36:04;;;;;;;8.13;2.38;;;8.60;99.90;;;;;;5118795;28;20043;-70
2023/10/16 03:38:37;;;;;;;5.38;2.10;;;8.50;99.90;;;;;;5101801;28;20101;-70
2023/10/16 03:46:55;;;;;;;8.35;2.63;;;8.50;99.90;;;;;;5097909;28;20067;-69
2023/10/16 03:49:21;;;;;;;5.22;2.83;;;8.50;99.90;;;;;;5118841;28;20040;-70
2023/10/16 03:51:48;;;;;;;8.85;2.42;;;8.50;99.90;;;;;;5120059;28;20968;-70
2023/10/16 03:54:16;;;;;;;8.15;2.70;;;8.50;99.90;;;;;;5101477;28;20051;-69
2023/10/16 03:56:44;;;;;;;5.72;2.17;;;8.50;99.90;;;;;;5118880;28;20083;-69
2023/10/16 03:59:11;;;;;;;4.70;2.47;;;8.50;99.90;;;;;;5101700;28;20051;-69
2023/10/16 04:01:39;;;;;;;4.18;2.30;;;8.50;99.90;;;;;;5118699;28;20071;-69
2023/10/16 04:04:12;;;;;;;8.57;3.95;;;8.60;99.90;;;;;;5119106;28;20054;-69
2023/10/16 04:06:39;;;;;;;4.80;2.20;;;8.60;99.90;;;;;;5119489;28;20051;-69
2023/10/16 04:09:06;;;;;;;4.15;2.60;;;8.60;99.90;;;;;;5119930;28;20061;-68
2023/10/16 04:11:32;;;;;;;3.60;2.15;;;8.60;99.90;;;;;;5119769;28;20059;-70
2023/10/16 04:13:59;;;;;;;3.00;2.10;;;8.60;99.90;;;;;;5099568;28;20058;-70
2023/10/16 04:16:44;;;;;;;6.13;2.30;;;8.60;99.90;;;;;;5100867;28;20066;-68
2023/10/16 04:21:40;;;;;;;2.80;2.60;;;8.60;99.90;;;;;;5119239;28;20058;-69
2023/10/16 04:26:57;;;;;;;6.20;2.50;;;8.60;99.90;;;;;;5118096;28;20051;-69
2023/10/16 04:29:29;;;;;;;5.35;2.40;;;8.60;99.90;;;;;;5118877;28;20043;-70
2023/10/16 04:31:59;;;;;;;3.03;2.30;;;8.60;99.90;;;;;;5099120;28;20062;-69
2023/10/16 04:37:49;;;;;;;5.88;2.38;;;8.70;99.90;;;;;;5118431;28;20050;-69
2023/10/16 05:00:57;;;;;;;6.18;2.63;;;8.70;99.90;;;;;;5117863;28;20051;-68
2023/10/16 05:03:23;;;;;;;5.90;2.55;;;8.70;99.90;;;;;;5117755;28;20051;-69
2023/10/16 05:06:02;;;;;;;7.22;2.90;;;8.70;99.90;;;;;;5098556;28;20051;-69
2023/10/16 05:08:34;;;;;;;4.85;2.70;;;8.70;99.90;;;;;;5099580;28;20086;-68
2023/10/16 05:16:35;;;;;;;5.13;2.30;;;8.70;99.90;;;;;;5099156;28;20055;-69
2023/10/16 05:19:14;;;;;;;5.65;2.25;;;8.70;99.90;;;;;;5116885;28;20044;-68
2023/10/16 06:16:20;;;;;;;4.05;2.10;;;8.70;99.90;;;;;;5098547;28;20051;-69
2023/10/16 06:18:47;;;;;;;3.42;2.20;;;8.70;99.90;;;;;;5097695;28;20066;-69
2023/10/16 06:21:14;;;;;;;9.13;2.33;;;8.70;99.90;;;;;;5117593;28;20486;-68
2023/10/16 06:23:49;;;;;;;4.05;2.40;;;8.70;99.90;;;;;;5116382;28;20080;-68
2023/10/16 06:26:16;;;;;;;4.82;2.50;;;8.70;99.90;;;;;;5116832;28;20043;-70
2023/10/16 06:28:49;;;;;;;7.30;2.03;;;8.70;99.90;;;;;;5116739;28;20049;-69
2023/10/16 06:31:24;;;;;;;3.55;2.25;;;8.70;99.90;;;;;;5115762;28;20082;-70
2023/10/16 06:33:58;;;;;;;4.43;2.00;;;8.80;99.90;;;;;;5117173;28;20115;-69
2023/10/16 06:36:24;;;;;;;5.97;2.38;;;8.80;99.90;;;;;;5097603;28;20075;-69
2023/10/16 06:38:53;;;;;;;6.07;2.10;;;8.80;99.90;;;;;;5117085;28;20040;-68
2023/10/16 06:41:20;;;;;;;2.95;2.40;;;8.80;99.90;;;;;;5098778;28;20147;-69
2023/10/16 06:43:47;;;;;;;4.53;2.20;;;8.80;99.90;;;;;;5115471;28;20498;-70
2023/10/16 06:46:21;;;;;;;4.93;2.40;;;8.80;99.90;;;;;;5117116;28;20074;-71
2023/10/16 06:48:48;;;;;;;4.07;2.30;;;8.80;99.90;;;;;;5097638;28;20047;-70
2023/10/16 06:51:15;;;;;;;3.95;2.40;;;8.90;99.90;;;;;;5098709;28;20092;-70
2023/10/16 06:53:43;;;;;;;6.18;2.75;;;8.90;99.90;;;;;;5116486;28;20147;-68
2023/10/16 06:56:08;;;;;;;3.35;2.08;;;8.90;99.90;;;;;;5110417;28;20040;-71
2023/10/16 06:58:34;;;;;;;2.45;2.08;;;9.00;99.90;;;;;;5086771;28;20110;-69
2023/10/16 07:01:01;;;;;;;3.40;2.03;;;9.00;99.90;;;;;;5106438;28;20032;-69
2023/10/16 07:03:28;;;;;;;3.70;2.38;;;9.00;99.90;;;;;;5088655;28;20047;-69
2023/10/16 07:05:54;;;;;;;3.72;1.95;;;9.10;99.90;;;;;;5086308;28;20756;-69
2023/10/16 07:08:22;;;;;;;8.40;3.60;;;9.10;99.90;;;;;;5108285;28;20477;-69
2023/10/16 07:10:55;;;;;;;7.15;2.50;;;9.20;99.90;;;;;;5109553;28;20081;-71
2023/10/16 07:13:38;;;;;;;3.22;2.42;;;9.20;99.90;;;;;;5114832;28;20051;-68
2023/10/16 07:16:07;;;;;;;7.75;2.25;;;9.20;99.90;;;;;;5084172;28;20688;-70
2023/10/16 07:18:33;;;;;;;3.85;2.13;;;9.30;99.90;;;;;;5098873;28;20040;-71
2023/10/16 07:23:37;;;;;;;6.38;2.35;;;9.30;99.90;;;;;;5099093;28;20036;-69
2023/10/16 07:26:03;;;;;;;2.78;2.08;;;9.40;99.90;;;;;;5081497;28;20078;-70
2023/10/16 07:28:31;;;;;;;5.20;2.30;;;9.40;99.90;;;;;;5081104;28;20052;-70
2023/10/16 07:30:58;;;;;;;4.65;2.78;;;9.40;99.90;;;;;;5080675;28;20186;-70
2023/10/16 07:33:24;;;;;;;2.05;1.77;;;9.40;99.90;;;;;;5064955;28;20048;-70
2023/10/16 07:35:51;;;;;;;4.50;2.00;;;9.50;99.90;;;;;;5080090;28;20052;-72
2023/10/16 07:38:19;;;;;;;8.55;2.47;;;9.50;99.90;;;;;;5099370;28;20083;-70
2023/10/16 07:40:52;;;;;;;4.78;2.40;;;9.60;99.90;;;;;;5080410;28;20059;-71
2023/10/16 07:43:28;;;;;;;3.45;2.25;;;9.60;99.90;;;;;;5099083;28;20051;-71
2023/10/16 07:48:40;;;;;;;3.92;1.95;;;9.60;99.90;;;;;;5080145;28;20059;-70
2023/10/16 07:51:09;;;;;;;5.63;2.30;;;9.60;99.90;;;;;;5099605;28;20651;-70
2023/10/16 07:53:38;;;;;;;7.13;2.30;;;9.60;99.90;;;;;;5098809;28;20586;-69
2023/10/16 07:58:51;;;;;;;2.70;2.15;;;9.70;99.90;;;;;;5099298;28;20051;-69
2023/10/16 08:01:32;;;;;;;4.10;3.25;;;9.70;99.90;;;;;;5098405;28;20044;-71
2023/10/16 08:03:58;;;;;;;4.60;2.30;;;9.80;99.90;;;;;;5099410;28;20541;-70
2023/10/16 08:06:25;;;;;;;3.22;2.28;;;9.80;99.90;;;;;;5098527;28;20056;-70
2023/10/16 08:11:42;;;;;;;2.55;2.15;;;9.90;99.90;;;;;;5100530;28;20058;-70
2023/10/16 08:14:09;;;;;;;4.72;2.47;;;10.00;99.90;;;;;;5117828;28;20048;-70
2023/10/16 08:16:34;;;;;;;8.68;2.85;;;10.00;99.90;;;;;;5119071;28;20043;-70
2023/10/16 08:19:00;;;;;;;2.88;2.20;;;10.00;99.90;;;;;;5077994;28;20046;-69
2023/10/16 08:21:26;;;;;;;8.25;2.80;;;10.00;99.90;;;;;;5083668;28;20078;-71
2023/10/16 08:23:56;;;;;;;6.38;3.25;;;10.10;99.90;;;;;;5099737;28;20035;-70
2023/10/16 08:26:28;;;;;;;4.28;2.33;;;10.10;99.90;;;;;;5118011;28;20047;-71
2023/10/16 08:29:11;;;;;;;3.75;2.30;;;10.20;99.90;;;;;;5118552;27;20061;-70
2023/10/16 08:31:44;;;;;;;4.55;2.33;;;10.20;99.90;;;;;;5117333;28;20114;-70
2023/10/16 08:34:13;;;;;;;4.10;2.40;;;10.20;99.90;;;;;;5118780;28;20130;-70
2023/10/16 08:36:39;;;;;;;3.10;2.25;;;10.30;99.90;;;;;;5099119;28;20082;-69
2023/10/16 08:39:15;;;;;;;2.85;2.00;;;10.30;99.90;;;;;;5099628;28;20050;-71
2023/10/16 08:42:10;;;;;;;4.05;2.10;;;10.30;99.90;;;;;;5099874;28;20066;-70
2023/10/16 08:44:33;;;;;;;3.53;2.60;;;10.40;99.90;;;;;;5116597;28;20056;-70
2023/10/16 08:49:25;;;;;;;6.18;2.35;;;10.50;99.90;;;;;;5117597;28;20346;-70
2023/10/16 08:52:03;;;;;;;10.88;2.78;;;10.50;99.90;;;;;;5117872;28;20950;-71
2023/10/16 08:57:19;;;;;;;4.82;2.40;;;10.60;99.90;;;;;;5117033;28;20039;-68
2023/10/16 08:59:47;;;;;;;5.90;2.25;;;10.60;99.90;;;;;;5118389;28;20051;-69
2023/10/16 09:02:17;;;;;;;6.43;1.90;;;10.60;99.90;;;;;;5117642;28;20051;-68
2023/10/16 09:04:44;;;;;;;5.35;1.85;;;10.70;99.90;;;;;;5117785;28;20048;-69
2023/10/16 09:07:16;;;;;;;6.30;2.38;;;10.70;99.90;;;;;;5117847;28;20051;-70
2023/10/16 09:09:44;;;;;;;3.60;1.98;;;10.80;99.90;;;;;;5097897;28;20058;-68
2023/10/16 09:12:12;;;;;;;6.72;2.42;;;10.80;99.90;;;;;;5118097;28;20062;-70
2023/10/16 09:14:40;;;;;;;5.72;2.38;;;10.80;99.90;;;;;;5116394;28;20056;-70
2023/10/16 09:17:06;;;;;;;3.65;1.45;;;10.90;99.90;;;;;;5097625;28;20044;-70
2023/10/16 09:19:45;;;;;;;3.70;1.60;;;10.90;99.90;;;;;;5117413;28;20997;-67
2023/10/16 09:22:15;;;;;;;3.33;1.52;;;10.90;99.90;;;;;;5116733;28;20044;-69
2023/10/16 09:24:45;;;;;;;4.45;1.48;;;11.00;99.90;;;;;;5117246;28;20043;-68
2023/10/16 09:27:22;;;;;;;2.28;1.70;;;11.00;99.90;;;;;;5116659;28;20050;-68
2023/10/16 09:29:54;;;;;;;7.03;1.70;;;11.10;99.90;;;;;;5117470;28;20058;-70
2023/10/16 09:32:25;;;;;;;3.22;1.30;;;11.10;99.90;;;;;;5116498;27;20071;-69
2023/10/16 09:34:57;;;;;;;4.50;1.77;;;11.10;99.90;;;;;;5117432;28;20388;-70
2023/10/16 09:37:34;;;;;;;5.75;1.65;;;11.10;99.90;;;;;;5117571;28;20047;-69
2023/10/16 09:40:20;;;;;;;8.68;1.83;;;11.20;99.90;;;;;;5116688;28;20035;-67
2023/10/16 09:42:55;;;;;;;6.07;1.85;;;11.20;99.90;;;;;;5117912;28;20044;-69
2023/10/16 09:45:24;;;;;;;4.07;1.65;;;11.30;99.90;;;;;;5117548;28;20955;-69
2023/10/16 09:47:54;;;;;;;6.57;1.58;;;11.30;99.90;;;;;;5116882;28;20047;-69
2023/10/16 09:50:20;;;;;;;6.78;1.88;;;11.30;99.90;;;;;;5117426;28;20047;-69
2023/10/16 09:52:47;;;;;;;5.82;1.40;;;11.40;99.90;;;;;;5115993;28;20048;-69
2023/10/16 09:55:15;;;;;;;4.28;1.63;;;11.40;99.90;;;;;;5117461;28;20047;-77
2023/10/16 09:57:54;;;;;;;6.03;1.40;;;11.40;99.90;;;;;;5116813;28;20054;-76
2023/10/16 10:03:13;;;;;;;4.45;2.08;;;11.50;99.90;;;;;;5098423;28;20618;-76
2023/10/16 10:05:55;;;;;;;4.88;1.50;;;11.50;99.90;;;;;;5120014;28;20048;-75
2023/10/16 10:08:52;;;;;;;7.95;1.83;;;11.50;99.90;;;;;;5100579;28;20077;-71
2023/10/16 10:11:38;;;;;;;6.30;1.52;;;11.60;99.90;;;;;;5099163;28;20062;-74
2023/10/16 10:16:56;;;;;;;4.47;1.40;;;11.90;99.90;;;;;;5116798;28;20051;-75
2023/10/16 10:19:39;;;;;;;7.82;1.75;;;11.70;99.90;;;;;;5116191;28;20652;-76
2023/10/16 10:22:18;;;;;;;5.97;1.77;;;11.80;99.90;;;;;;5116084;28;20055;-74
2023/10/16 10:24:53;;;;;;;12.43;1.50;;;11.90;99.90;;;;;;5116972;28;20055;-76
2023/10/16 10:27:19;;;;;;;5.97;1.30;;;12.00;99.90;;;;;;5115955;28;20096;-73
2023/10/16 10:29:48;;;;;;;4.20;1.25;;;12.00;99.90;;;;;;5117181;28;20043;-78
2023/10/16 10:32:15;;;;;;;4.75;1.17;;;12.10;99.90;;;;;;5116414;28;20128;-76
2023/10/16 10:34:42;;;;;;;9.13;1.80;;;12.00;99.90;;;;;;5113883;28;20043;-76
2023/10/16 10:37:51;;;;;;;6.47;1.55;;;11.90;99.90;;;;;;5115639;28;20048;-78
2023/10/16 10:40:24;;;;;;;3.55;1.55;;;12.00;99.90;;;;;;5111196;28;20458;-75
2023/10/16 10:42:55;;;;;;;6.20;1.40;;;12.10;99.90;;;;;;5118985;28;20044;-76
2023/10/16 10:45:39;;;;;;;4.53;1.40;;;12.20;99.90;;;;;;5122989;27;20069;-77
2023/10/16 10:48:12;;;;;;;3.40;1.10;;;12.30;99.90;;;;;;5118879;27;20285;-77
2023/10/16 10:50:39;;;;;;;4.93;1.30;;;12.30;99.90;;;;;;5140646;27;20043;-76
2023/10/16 10:53:15;;;;;;;6.38;1.35;;;12.40;99.90;;;;;;5139227;27;20039;-74
2023/10/16 10:55:53;;;;;;;6.68;1.45;;;12.40;99.90;;;;;;5140840;27;20043;-75
2023/10/16 10:58:20;;;;;;;2.92;1.27;;;12.40;99.90;;;;;;5140180;27;20651;-76
2023/10/16 11:00:50;;;;;;;7.53;1.85;;;12.30;99.90;;;;;;5121734;27;20126;-76
2023/10/16 11:06:18;;;;;;;5.13;1.33;;;12.30;99.90;;;;;;5129907;27;20589;-76
2023/10/16 11:08:54;;;;;;;3.20;1.00;;;12.20;99.90;;;;;;5140701;27;20050;-76
2023/10/16 11:11:19;;;;;;;2.65;1.17;;;12.20;99.90;;;;;;5111831;28;20055;-76
2023/10/16 11:13:49;;;;;;;3.35;1.25;;;12.20;99.90;;;;;;5100514;28;20050;-76
2023/10/16 11:16:15;;;;;;;6.40;1.20;;;12.20;99.90;;;;;;5120096;28;20043;-76
2023/10/16 11:19:08;;;;;;;4.70;1.58;;;12.30;99.90;;;;;;5118015;27;20130;-76
2023/10/16 11:21:35;;;;;;;3.92;2.03;;;12.30;99.90;;;;;;5119854;28;20035;-76
2023/10/16 11:24:05;;;;;;;3.95;1.27;;;12.30;99.90;;;;;;5127325;27;20062;-76
2023/10/16 11:26:32;;;;;;;1.38;0.95;;;12.40;99.90;;;;;;5138912;27;20578;-76
2023/10/16 11:29:00;;;;;;;2.97;1.20;;;12.30;99.90;;;;;;5140192;27;20053;-76
2023/10/16 11:31:26;;;;;;;5.97;1.15;;;12.40;99.90;;;;;;5138065;27;20062;-76
2023/10/16 11:36:42;;;;;;;8.10;1.30;;;12.40;99.90;;;;;;5119288;28;20051;-77
2023/10/16 11:39:08;;;;;;;3.55;1.30;;;12.20;99.90;;;;;;5126340;27;20031;-78
2023/10/16 11:41:34;;;;;;;3.50;1.08;;;12.20;99.90;;;;;;5140539;27;20553;-75
2023/10/16 11:44:16;;;;;;;6.13;1.33;;;12.20;99.90;;;;;;5138131;27;20062;-76
2023/10/16 11:46:44;;;;;;;6.13;1.50;;;12.30;99.90;;;;;;5121818;27;20084;-67
2023/10/16 11:52:27;;;;;;;2.90;1.25;;;12.30;99.90;;;;;;5139830;27;20047;-75
2023/10/16 11:54:57;;;;;;;3.92;1.25;;;12.30;99.90;;;;;;5129674;27;20059;-74
2023/10/16 11:57:27;;;;;;;4.28;1.05;;;12.20;99.90;;;;;;5138895;27;20038;-75
2023/10/16 11:59:56;;;;;;;2.78;1.30;;;12.30;99.90;;;;;;5139987;27;20047;-74
2023/10/16 12:02:29;;;;;;;3.45;0.93;;;12.40;99.90;;;;;;5139324;27;20095;-75
2023/10/16 12:04:57;;;;;;;4.07;1.23;;;12.50;99.90;;;;;;5138861;27;20431;-74
2023/10/16 12:07:23;;;;;;;4.60;1.20;;;12.40;99.90;;;;;;5139590;27;20054;-76
2023/10/16 12:09:52;;;;;;;5.45;1.20;;;12.40;99.90;;;;;;5138223;27;20051;-75
2023/10/16 12:12:24;;;;;;;2.53;1.17;;;12.50;99.90;;;;;;5140036;27;20105;-75
2023/10/16 12:14:50;;;;;;;2.33;1.17;;;12.50;99.90;;;;;;5138070;27;20050;-75
2023/10/16 12:17:20;;;;;;;4.55;1.15;;;12.60;99.90;;;;;;5139101;27;20043;-72
2023/10/16 12:19:46;;;;;;;4.75;1.10;;;12.60;99.90;;;;;;5139079;27;20046;-74
2023/10/16 12:22:15;;;;;;;3.00;0.80;;;12.60;99.90;;;;;;5132446;27;20040;-75
2023/10/16 12:24:43;;;;;;;3.40;0.90;;;12.60;99.90;;;;;;5127956;27;20100;-75
2023/10/16 12:27:15;;;;;;;2.83;1.15;;;12.70;99.90;;;;;;5137818;27;20095;-75
2023/10/16 12:29:41;;;;;;;1.45;0.93;;;12.70;99.90;;;;;;5138789;27;20644;-74
2023/10/16 12:32:07;;;;;;;3.22;1.02;;;12.70;99.90;;;;;;5137631;27;20519;-75
2023/10/16 12:34:36;;;;;;;4.78;1.15;;;12.70;99.90;;;;;;5138364;27;20141;-76
2023/10/16 12:37:06;;;;;;;5.13;1.10;;;12.70;99.90;;;;;;5138641;27;20070;-75
2023/10/16 12:39:35;;;;;;;3.67;1.08;;;12.60;99.90;;;;;;5137450;27;20046;-73
2023/10/16 12:42:05;;;;;;;4.63;1.25;;;12.70;99.90;;;;;;5138909;27;20046;-75
2023/10/16 12:44:30;;;;;;;7.40;1.02;;;12.80;99.90;;;;;;5137459;27;20042;-75
2023/10/16 12:46:56;;;;;;;6.20;1.33;;;12.70;99.90;;;;;;5138550;27;20055;-75
2023/10/16 12:49:22;;;;;;;4.25;0.88;;;12.70;99.90;;;;;;5137832;27;20059;-74
2023/10/16 12:51:49;;;;;;;3.42;1.30;;;12.70;99.90;;;;;;5138660;27;20124;-75
2023/10/16 12:54:16;;;;;;;6.43;1.10;;;12.70;99.90;;;;;;5138596;27;20049;-70
2023/10/16 12:56:43;;;;;;;2.40;1.10;;;12.70;99.90;;;;;;5137727;27;20057;-71
2023/10/16 12:59:12;;;;;;;8.18;1.65;;;12.70;99.90;;;;;;5139034;27;20675;-70
2023/10/16 13:01:38;;;;;;;2.63;1.40;;;12.90;99.90;;;;;;5119297;27;20047;-71
2023/10/16 13:04:13;;;;;;;3.00;1.50;;;12.80;99.90;;;;;;5139904;27;20068;-70
2023/10/16 13:06:39;;;;;;;2.97;0.95;;;12.80;99.90;;;;;;5137826;27;20094;-70
2023/10/16 13:09:05;;;;;;;5.22;1.13;;;12.80;99.90;;;;;;5121804;27;20473;-70
2023/10/16 13:11:32;;;;;;;4.75;1.40;;;12.80;99.90;;;;;;5117594;28;20183;-70
2023/10/16 13:13:57;;;;;;;4.82;1.13;;;12.90;99.90;;;;;;5116370;28;20051;-69
2023/10/16 13:16:24;;;;;;;4.00;1.00;;;12.90;99.90;;;;;;5117151;28;20039;-69
2023/10/16 13:18:57;;;;;;;6.07;1.30;;;12.90;99.90;;;;;;5116310;28;20411;-68
2023/10/16 13:21:33;;;;;;;4.43;1.20;;;12.90;99.90;;;;;;5117748;28;20036;-69
2023/10/16 13:24:09;;;;;;;2.30;1.17;;;12.80;99.90;;;;;;5117433;27;20039;-70
2023/10/16 13:26:38;;;;;;;7.60;1.27;;;12.80;99.90;;;;;;5116686;28;20039;-67
2023/10/16 13:29:08;;;;;;;1.92;1.10;;;12.80;99.90;;;;;;5117568;27;20079;-66
2023/10/16 13:31:40;;;;;;;6.57;1.00;;;12.90;99.90;;;;;;5116242;28;20491;-69
2023/10/16 13:34:10;;;;;;;3.95;1.15;;;12.80;99.90;;;;;;5117719;28;20051;-69
2023/10/16 13:37:04;;;;;;;3.15;1.13;;;12.80;99.90;;;;;;5117332;28;20051;-68
2023/10/16 13:39:33;;;;;;;5.60;1.30;;;12.90;99.90;;;;;;5116651;28;20051;-69
2023/10/16 13:42:07;;;;;;;6.00;1.77;;;12.80;99.90;;;;;;5117794;28;20054;-68
2023/10/16 13:44:35;;;;;;;2.50;1.10;;;12.90;99.90;;;;;;5116155;28;20055;-68
2023/10/16 13:47:05;;;;;;;3.30;1.15;;;12.80;99.90;;;;;;5117736;28;20038;-69
2023/10/16 13:49:34;;;;;;;3.00;1.13;;;12.70;99.90;;;;;;5117537;28;20028;-71
2023/10/16 13:52:00;;;;;;;4.63;1.10;;;12.80;99.90;;;;;;5116975;28;20047;-70
2023/10/16 13:54:25;;;;;;;2.47;0.80;;;12.80;99.90;;;;;;5115707;28;20054;-68
2023/10/16 13:56:51;;;;;;;4.32;1.00;;;12.80;99.90;;;;;;5116007;28;20070;-71
2023/10/16 13:59:20;;;;;;;7.05;1.70;;;12.80;99.90;;;;;;5116643;28;20043;-67
2023/10/16 14:01:46;;;;;;;4.35;0.90;;;12.70;99.90;;;;;;5116474;28;20653;-66
2023/10/16 14:04:16;;;;;;;3.42;1.33;;;12.80;99.90;;;;;;5117475;28;20104;-73
2023/10/16 14:06:51;;;;;;;3.38;1.00;;;12.80;99.90;;;;;;5098775;28;20044;-67
2023/10/16 14:09:21;;;;;;;3.67;1.10;;;12.80;99.90;;;;;;5116122;28;20093;-66
2023/10/16 14:11:48;;;;;;;2.95;1.63;;;12.80;99.90;;;;;;5117251;28;20445;-68
2023/10/16 14:14:20;;;;;;;4.15;1.08;;;12.80;99.90;;;;;;5115444;28;20048;-70
2023/10/16 14:16:46;;;;;;;4.40;1.10;;;12.70;99.90;;;;;;5113516;28;20097;-69
2023/10/16 14:19:14;;;;;;;3.58;1.23;;;12.70;99.90;;;;;;5110448;28;20044;-71
2023/10/16 14:21:40;;;;;;;4.20;1.55;;;12.70;99.90;;;;;;5109486;28;20066;-70
2023/10/16 14:24:17;;;;;;;4.25;1.08;;;12.70;99.90;;;;;;5110877;28;20112;-70
2023/10/16 14:26:44;;;;;;;5.72;1.27;;;12.70;99.90;;;;;;5114886;28;20089;-71
2023/10/16 14:29:10;;;;;;;4.68;1.38;;;12.70;99.90;;;;;;5120141;28;20043;-71
2023/10/16 14:31:36;;;;;;;4.68;1.08;;;12.70;99.90;;;;;;5100825;28;20040;-70
2023/10/16 14:34:05;;;;;;;5.47;1.10;;;12.70;99.90;;;;;;5120741;28;20069;-72
2023/10/16 14:36:31;;;;;;;18.60;2.03;;;12.70;99.90;;;;;;5119809;28;20051;-70
2023/10/16 14:38:59;;;;;;;4.82;1.38;;;12.70;99.90;;;;;;5118975;28;20040;-71
2023/10/16 14:41:25;;;;;;;4.85;1.17;;;12.70;99.90;;;;;;5116533;28;20119;-71
2023/10/16 14:43:51;;;;;;;5.75;1.20;;;12.70;99.90;;;;;;5118498;28;20075;-71
2023/10/16 14:46:17;;;;;;;3.40;1.10;;;12.70;99.90;;;;;;5117185;27;20150;-72
2023/10/16 14:48:43;;;;;;;3.13;1.10;;;12.70;99.90;;;;;;5119353;28;20063;-71
2023/10/16 14:51:15;;;;;;;13.15;1.67;;;12.70;99.90;;;;;;5120382;27;20605;-71
2023/10/16 14:53:48;;;;;;;3.03;1.00;;;12.70;99.90;;;;;;5119587;28;20050;-70
2023/10/16 14:56:19;;;;;;;5.38;1.20;;;12.70;99.90;;;;;;5131910;27;20773;-71
2023/10/16 14:58:49;;;;;;;3.03;0.95;;;12.70;99.90;;;;;;5103312;28;20061;-69
2023/10/16 15:01:15;;;;;;;2.75;1.25;;;12.70;99.90;;;;;;5117246;28;20055;-71
2023/10/16 15:03:46;;;;;;;5.50;1.90;;;12.80;99.90;;;;;;5120441;28;20039;-70
2023/10/16 15:06:13;;;;;;;5.45;1.67;;;12.70;99.90;;;;;;5119515;28;20423;-70
2023/10/16 15:08:41;;;;;;;6.68;2.42;;;12.70;99.90;;;;;;5120288;28;20046;-71
2023/10/16 15:11:10;;;;;;;4.18;1.33;;;12.70;99.90;;;;;;5119884;28;20048;-70
2023/10/16 15:13:37;;;;;;;3.72;1.30;;;12.70;99.90;;;;;;5119292;28;20047;-69
2023/10/16 15:16:06;;;;;;;4.38;1.13;;;12.60;99.90;;;;;;5120143;28;20087;-71
2023/10/16 15:18:33;;;;;;;6.30;1.60;;;12.60;99.90;;;;;;5119044;28;20047;-71
2023/10/16 15:21:00;;;;;;;5.10;1.25;;;12.60;99.90;;;;;;5120409;28;20090;-70
2023/10/16 15:23:27;;;;;;;4.45;1.33;;;12.60;99.90;;;;;;5113896;28;20081;-69
2023/10/16 15:25:53;;;;;;;4.63;1.60;;;12.60;99.90;;;;;;5106627;28;20070;-70